Página principal
METAR-TAF:

METAR-TAF

Aeroportos :

Caracas, Venezuela

Aeroporto Internacional Simón Bolívar

latitude: 10-36N, longitude: 066-59W, altura: 43 m

Observação actual do tempo

O boletim foi feito há 21 minutos, às 17:00 UTC
Vento 2 kt de norte
Temperatura 27°C
Humidade 62%
Pressão 1013 hPa
Visibilidade: 6000 m
Encobertoa uma altura de 1600 ft
chuva

METAR: SVMI 281700Z 36002KT 6000 RA OVC016 27/19 Q1013

Hora: 13:21 (17:21 UTC)

Previsão

O boletim foi feito há 7 horas e 21 minutos, às 10:00 UTC
Previsão válida de 28 às 12 UTC a 29 às 12 UTC
Vento 6 kt de es-nordeste
Visibilidade 10 km ou mais
Poucas nuvensa uma altura de 1600 ft
Nuvens dispersasa uma altura de 10000 ft
Tornando-se
de 28 às 12 UTC a 28 às 16 UTC
Vento 10 kt de este
Nuvens dispersasa uma altura de 1300 ft

TAF: SVMI 281000Z 2812/2912 07006KT 9999 FEW016 SCT100 TX33/18Z TN25/08Z BECMG 2812/2816 09010KT SCT013

Observações e previsões do tempo de mais de 4000 aeroportos (mensagens METAR e TAF).

As estações disponíveis são os pontos amarelos e vermelhos sobre o mapa.

Mova o rato sobre o mapa para ver o nome da estação.

Depois clique no ponto para visualizar as observações e previsões meteorológicas.

Para alterar o mapa : clique nos botões verdes com uma cruz preta para aumentar o zoom; no botão verde com uma pitada de zoom; ou nas setas verdes para mapas adjacentes.


METAR-TAF: